createdAt,value
2018-08-13T00:00:26.059Z,2.17
2018-08-13T00:05:29.320Z,1.70
2018-08-13T00:10:32.789Z,1.90
2018-08-13T00:15:36.060Z,1.33
2018-08-13T00:20:39.547Z,1.30
2018-08-13T00:25:43.021Z,1.57
2018-08-13T00:30:46.337Z,1.80
2018-08-13T00:35:49.629Z,1.70
2018-08-13T00:40:53.012Z,1.70
2018-08-13T00:45:56.295Z,1.90
2018-08-13T00:50:59.606Z,1.90
2018-08-13T00:56:02.949Z,2.60
2018-08-13T01:01:06.238Z,2.03
2018-08-13T01:06:09.602Z,2.13
2018-08-13T01:11:12.920Z,2.20
2018-08-13T01:16:16.184Z,1.67
2018-08-13T01:21:19.508Z,1.70
2018-08-13T01:26:22.858Z,2.20
2018-08-13T01:31:26.229Z,1.90
2018-08-13T01:36:29.561Z,1.80
2018-08-13T01:41:32.857Z,1.93
2018-08-13T01:46:36.265Z,1.80
2018-08-13T01:51:39.566Z,1.97
2018-08-13T01:56:42.864Z,2.10
2018-08-13T02:01:46.634Z,2.07
2018-08-13T02:06:50.078Z,2.10
2018-08-13T02:11:53.871Z,2.13
2018-08-13T02:16:57.892Z,1.97
2018-08-13T02:22:01.516Z,2.30
2018-08-13T02:27:05.336Z,1.90
2018-08-13T02:32:08.940Z,2.07
2018-08-13T02:37:12.350Z,2.10
2018-08-13T02:42:15.656Z,2.37
2018-08-13T02:47:18.985Z,2.20
2018-08-13T02:52:22.417Z,2.20
2018-08-13T02:57:25.694Z,2.77
2018-08-13T03:02:29.017Z,2.20
2018-08-13T03:07:32.308Z,2.40
2018-08-13T03:12:35.925Z,2.00
2018-08-13T03:17:39.272Z,2.07
2018-08-13T03:22:42.500Z,2.00
2018-08-13T03:27:45.773Z,2.17
2018-08-13T03:32:49.168Z,2.17
2018-08-13T03:37:52.421Z,2.07
2018-08-13T03:42:55.688Z,2.43
2018-08-13T03:47:59.101Z,2.60
2018-08-13T03:53:02.348Z,2.40
2018-08-13T03:58:05.718Z,2.43
2018-08-13T04:03:08.953Z,2.77
2018-08-13T04:08:12.331Z,2.40
2018-08-13T04:13:15.569Z,2.53
2018-08-13T04:18:18.872Z,2.13
2018-08-13T04:23:23.275Z,2.20
2018-08-13T04:28:26.554Z,2.37
2018-08-13T04:33:30.029Z,2.60
2018-08-13T04:38:33.521Z,2.90
2018-08-13T04:43:36.878Z,2.17
2018-08-13T04:48:40.344Z,2.17
2018-08-13T04:53:43.649Z,2.90
2018-08-13T04:58:46.945Z,2.40
2018-08-13T05:03:50.401Z,2.30
2018-08-13T05:08:53.432Z,2.70
2018-08-13T05:13:57.165Z,2.90
2018-08-13T05:19:00.494Z,2.50
2018-08-13T05:24:03.988Z,2.97
2018-08-13T05:29:07.309Z,2.67
2018-08-13T05:34:10.646Z,3.03
2018-08-13T05:39:14.069Z,3.20
2018-08-13T05:44:17.382Z,3.30
2018-08-13T05:49:20.748Z,2.90
2018-08-13T05:54:24.058Z,3.40
2018-08-13T05:59:27.370Z,3.20
2018-08-13T06:04:30.677Z,3.37
2018-08-13T06:09:34.079Z,3.17
2018-08-13T06:14:37.474Z,3.50
2018-08-13T06:19:40.752Z,3.57
2018-08-13T06:24:44.201Z,4.03
2018-08-13T06:29:47.590Z,3.43
2018-08-13T06:34:50.925Z,3.20
2018-08-13T06:39:54.276Z,3.30
2018-08-13T06:44:57.749Z,2.97
2018-08-13T06:50:01.077Z,2.90
2018-08-13T06:55:04.763Z,2.10
2018-08-13T07:00:10.257Z,2.53
2018-08-13T07:05:13.549Z,2.60
2018-08-13T07:10:16.911Z,2.90
2018-08-13T07:15:20.327Z,2.40
2018-08-13T07:20:23.579Z,2.10
2018-08-13T07:25:26.917Z,2.60
2018-08-13T07:30:30.435Z,2.80
2018-08-13T07:35:33.936Z,2.53
2018-08-13T07:40:37.230Z,3.13
2018-08-13T07:45:40.610Z,2.27
2018-08-13T07:50:43.737Z,2.87
2018-08-13T07:55:47.097Z,2.43
2018-08-13T08:00:50.520Z,2.60
2018-08-13T08:05:53.835Z,2.70
2018-08-13T08:10:57.120Z,2.87
2018-08-13T08:16:00.540Z,2.67
2018-08-13T08:21:03.870Z,2.63
2018-08-13T08:26:07.297Z,3.03
2018-08-13T08:31:10.657Z,2.43
2018-08-13T08:36:14.052Z,2.77
2018-08-13T08:41:17.481Z,2.65
2018-08-13T08:46:20.929Z,2.33
2018-08-13T08:51:24.172Z,2.30
2018-08-13T08:56:27.618Z,2.47
2018-08-13T09:01:30.865Z,2.80
2018-08-13T09:06:34.109Z,2.40
2018-08-13T09:11:37.424Z,2.30
2018-08-13T09:16:42.672Z,2.30
2018-08-13T09:21:47.806Z,2.50
2018-08-13T09:26:56.347Z,2.25
2018-08-13T09:32:23.853Z,2.45
2018-08-13T09:37:27.572Z,2.25
2018-08-13T09:42:30.894Z,2.87
2018-08-13T09:47:34.193Z,1.62
2018-08-13T09:52:37.593Z,2.35
2018-08-13T09:57:41.344Z,2.12
2018-08-13T10:02:45.275Z,1.95
2018-08-13T10:07:48.725Z,2.52
2018-08-13T10:12:52.119Z,2.20
2018-08-13T10:17:55.458Z,2.35
2018-08-13T10:22:58.821Z,2.20
2018-08-13T10:28:02.133Z,2.37
2018-08-13T10:33:05.537Z,1.92
2018-08-13T10:38:08.849Z,2.65
2018-08-13T10:43:12.101Z,1.60
2018-08-13T10:48:15.403Z,2.58
2018-08-13T10:53:18.626Z,1.62
2018-08-13T10:58:21.935Z,1.50
2018-08-13T11:03:25.278Z,1.80
2018-08-13T11:08:28.562Z,1.20
2018-08-13T11:13:31.842Z,1.60
2018-08-13T11:18:36.256Z,1.72
2018-08-13T11:23:39.733Z,1.90
2018-08-13T11:28:43.316Z,1.72
2018-08-13T11:33:46.604Z,1.65
2018-08-13T11:38:49.949Z,1.57
2018-08-13T11:43:53.268Z,1.98
2018-08-13T11:48:56.765Z,1.47
2018-08-13T11:54:00.081Z,1.87
2018-08-13T11:59:03.413Z,1.92
2018-08-13T12:04:06.830Z,1.62
2018-08-13T12:09:11.710Z,1.75
2018-08-13T12:14:14.999Z,1.70
2018-08-13T12:19:18.321Z,1.52
2018-08-13T12:24:21.696Z,1.67
2018-08-13T12:29:24.989Z,1.45
2018-08-13T12:34:28.368Z,1.95
2018-08-13T12:39:31.781Z,1.92
2018-08-13T12:44:35.253Z,2.05
2018-08-13T12:49:38.638Z,1.92
2018-08-13T12:54:42.096Z,2.08
2018-08-13T12:59:45.409Z,2.02
2018-08-13T13:04:48.722Z,2.15
2018-08-13T13:09:52.140Z,2.45
2018-08-13T13:14:55.425Z,2.15
2018-08-13T13:19:58.898Z,2.37
2018-08-13T13:25:02.262Z,2.20
2018-08-13T13:30:07.582Z,2.58
2018-08-13T13:35:12.168Z,2.67
2018-08-13T13:40:16.487Z,1.90
2018-08-13T13:45:19.784Z,2.33
2018-08-13T13:50:23.218Z,2.50
2018-08-13T13:55:26.601Z,1.62
2018-08-13T14:00:30.062Z,2.62
2018-08-13T14:05:33.421Z,2.30
2018-08-13T14:10:36.751Z,2.30
2018-08-13T14:15:40.182Z,1.72
2018-08-13T14:20:43.631Z,1.80
2018-08-13T14:25:47.041Z,1.90
2018-08-13T14:30:50.559Z,2.33
2018-08-13T14:35:53.876Z,2.10
2018-08-13T14:40:57.217Z,2.00
2018-08-13T14:46:00.565Z,2.10
2018-08-13T14:51:03.863Z,1.70
2018-08-13T14:56:07.709Z,1.55
2018-08-13T15:01:10.974Z,2.08
2018-08-13T15:06:14.349Z,2.08
2018-08-13T15:11:17.657Z,2.00
2018-08-13T15:16:20.920Z,2.02
2018-08-13T15:21:24.242Z,2.05
2018-08-13T15:26:27.569Z,1.82
2018-08-13T15:31:30.923Z,1.87
2018-08-13T15:36:34.363Z,1.75
2018-08-13T15:41:37.649Z,2.05
2018-08-13T15:46:40.971Z,1.72
2018-08-13T15:51:44.325Z,1.60
2018-08-13T15:56:47.624Z,1.67
2018-08-13T16:01:51.030Z,1.60
2018-08-13T16:06:54.309Z,2.30
2018-08-13T16:11:57.596Z,1.80
2018-08-13T16:17:01.001Z,1.60
2018-08-13T16:22:05.306Z,1.60
2018-08-13T16:27:08.976Z,1.70
2018-08-13T16:32:12.665Z,1.60
2018-08-13T16:37:16.334Z,1.53
2018-08-13T16:42:19.887Z,1.30
2018-08-13T16:47:23.624Z,1.40
2018-08-13T16:52:27.210Z,1.43
2018-08-13T16:57:30.806Z,1.47
2018-08-13T17:02:34.546Z,1.70
2018-08-13T17:07:38.414Z,1.60
2018-08-13T17:12:42.193Z,1.63
2018-08-13T17:17:47.213Z,1.67
2018-08-13T17:22:50.645Z,1.50
2018-08-13T17:27:54.034Z,1.50
2018-08-13T17:32:58.829Z,1.70
2018-08-13T17:38:02.961Z,1.50
2018-08-13T17:43:07.668Z,1.43
2018-08-13T17:48:11.202Z,1.77
2018-08-13T17:53:14.550Z,1.30
2018-08-13T17:58:17.829Z,1.73
2018-08-13T18:03:21.185Z,1.57
2018-08-13T18:08:24.520Z,2.07
2018-08-13T18:13:27.848Z,1.73
2018-08-13T18:18:31.213Z,2.00
2018-08-13T18:23:34.577Z,1.67
2018-08-13T18:28:37.922Z,2.20
2018-08-13T18:33:41.305Z,2.40
2018-08-13T18:38:44.738Z,1.83
2018-08-13T18:43:48.181Z,2.03
2018-08-13T18:48:51.562Z,2.20
2018-08-13T18:53:54.957Z,2.03
2018-08-13T18:58:58.467Z,2.40
2018-08-13T19:04:01.794Z,2.47
2018-08-13T19:09:06.729Z,3.47
2018-08-13T19:14:10.048Z,2.67
2018-08-13T19:19:13.402Z,2.73
2018-08-13T19:24:16.919Z,1.90
2018-08-13T19:29:20.312Z,2.30
2018-08-13T19:34:23.664Z,2.10
2018-08-13T19:39:27.140Z,2.03
2018-08-13T19:44:30.561Z,2.10
2018-08-13T19:49:33.923Z,2.30
2018-08-13T19:54:37.365Z,1.73
2018-08-13T19:59:40.741Z,1.93
2018-08-13T20:04:44.041Z,2.27
2018-08-13T20:09:47.353Z,2.00
2018-08-13T20:14:50.741Z,1.73
2018-08-13T20:19:54.005Z,1.67
2018-08-13T20:24:57.839Z,1.80
2018-08-13T20:30:01.221Z,2.40
2018-08-13T20:35:04.560Z,2.70
2018-08-13T20:40:10.616Z,2.83
2018-08-13T20:45:15.717Z,2.90
2018-08-13T20:50:20.447Z,2.47
2018-08-13T20:55:25.383Z,2.17
2018-08-13T21:00:30.194Z,2.93
2018-08-13T21:05:33.474Z,1.90
2018-08-13T21:10:36.838Z,2.93
2018-08-13T21:15:40.276Z,3.30
2018-08-13T21:20:43.633Z,2.50
2018-08-13T21:25:46.921Z,2.77
2018-08-13T21:30:50.197Z,2.67
2018-08-13T21:35:53.453Z,2.30
2018-08-13T21:40:56.721Z,2.07
2018-08-13T21:45:59.978Z,1.73
2018-08-13T21:51:03.345Z,2.23
2018-08-13T21:56:06.697Z,2.27
2018-08-13T22:01:15.316Z,1.80
2018-08-13T22:06:18.590Z,1.80
2018-08-13T22:11:21.900Z,1.17
2018-08-13T22:16:25.445Z,1.60
2018-08-13T22:21:28.733Z,1.93
2018-08-13T22:26:32.377Z,1.70
2018-08-13T22:31:35.613Z,1.30
2018-08-13T22:36:38.858Z,1.50
2018-08-13T22:41:42.182Z,1.67
2018-08-13T22:46:45.421Z,1.60
2018-08-13T22:51:48.700Z,1.80
2018-08-13T22:56:51.997Z,1.63
2018-08-13T23:01:55.392Z,2.17
2018-08-13T23:06:58.750Z,1.10
2018-08-13T23:12:02.073Z,1.20
2018-08-13T23:17:05.460Z,1.10
2018-08-13T23:22:08.828Z,1.33
2018-08-13T23:27:12.121Z,1.37
2018-08-13T23:32:15.464Z,1.27
2018-08-13T23:37:18.761Z,1.87
2018-08-13T23:42:22.041Z,2.37
2018-08-13T23:47:25.406Z,2.03
2018-08-13T23:52:28.775Z,1.77
2018-08-13T23:57:32.085Z,2.10
